createdAt,value
2022-11-24T00:01:05.839Z,7.86
2022-11-24T00:03:32.627Z,7.89
2022-11-24T00:06:04.441Z,7.93
2022-11-24T00:08:30.976Z,7.77
2022-11-24T00:11:09.176Z,7.91
2022-11-24T00:13:36.001Z,7.81
2022-11-24T00:16:14.378Z,7.84
2022-11-24T00:18:42.967Z,7.71
2022-11-24T00:21:10.310Z,7.71
2022-11-24T00:23:37.741Z,7.89
2022-11-24T00:26:08.760Z,7.97
2022-11-24T00:28:36.779Z,7.86
2022-11-24T00:31:04.818Z,7.84
2022-11-24T00:33:31.897Z,7.82
2022-11-24T00:36:00.042Z,7.78
2022-11-24T00:38:27.190Z,7.82
2022-11-24T00:40:53.672Z,7.81
2022-11-24T00:43:22.872Z,7.78
2022-11-24T00:45:49.299Z,7.67
2022-11-24T00:48:16.040Z,7.69
2022-11-24T00:50:42.454Z,7.85
2022-11-24T00:53:09.860Z,7.86
2022-11-24T00:55:36.286Z,7.88
2022-11-24T00:58:02.718Z,7.80
2022-11-24T01:00:29.392Z,7.88
2022-11-24T01:02:55.860Z,7.88
2022-11-24T01:05:22.275Z,7.88
2022-11-24T01:07:48.734Z,7.97
2022-11-24T01:10:15.175Z,7.95
2022-11-24T01:12:41.667Z,7.92
2022-11-24T01:15:09.035Z,7.99
2022-11-24T01:17:35.459Z,8.04
2022-11-24T01:20:01.902Z,8.02
2022-11-24T01:22:28.417Z,7.94
2022-11-24T01:24:54.808Z,8.04
2022-11-24T01:27:21.284Z,8.02
2022-11-24T01:29:47.743Z,8.07
2022-11-24T01:32:14.253Z,8.02
2022-11-24T01:34:40.643Z,7.96
2022-11-24T01:37:07.032Z,7.91
2022-11-24T01:39:33.414Z,8.03
2022-11-24T01:42:02.687Z,8.12
2022-11-24T01:44:30.582Z,8.07
2022-11-24T01:47:06.591Z,8.09
2022-11-24T01:49:39.111Z,8.03
2022-11-24T01:52:15.900Z,8.00
2022-11-24T01:54:48.126Z,7.98
2022-11-24T01:57:24.518Z,7.97
2022-11-24T01:59:55.874Z,7.86
2022-11-24T02:02:28.368Z,7.97
2022-11-24T02:04:58.219Z,7.94
2022-11-24T02:07:25.275Z,7.87
2022-11-24T02:09:59.342Z,7.87
2022-11-24T02:12:29.844Z,7.92
2022-11-24T02:14:56.644Z,7.95
2022-11-24T02:17:23.067Z,7.91
2022-11-24T02:20:04.268Z,7.88
2022-11-24T02:22:57.035Z,7.80
2022-11-24T02:25:52.058Z,7.79
2022-11-24T02:28:21.662Z,7.74
2022-11-24T02:30:49.246Z,7.79
2022-11-24T02:33:15.936Z,7.83
2022-11-24T02:35:42.639Z,7.95
2022-11-24T02:38:16.193Z,7.81
2022-11-24T02:40:47.841Z,7.68
2022-11-24T02:43:19.810Z,7.75
2022-11-24T02:45:48.011Z,7.68
2022-11-24T02:48:15.864Z,7.71
2022-11-24T02:50:42.567Z,7.63
2022-11-24T02:53:10.164Z,7.68
2022-11-24T02:55:36.594Z,7.82
2022-11-24T02:58:03.064Z,7.76
2022-11-24T03:00:29.471Z,7.76
2022-11-24T03:02:55.898Z,7.70
2022-11-24T03:05:22.480Z,7.71
2022-11-24T03:07:49.295Z,7.75
2022-11-24T03:10:16.699Z,7.92
2022-11-24T03:12:43.223Z,7.76
2022-11-24T03:15:10.157Z,7.89
2022-11-24T03:17:36.809Z,7.80
2022-11-24T03:20:05.222Z,7.80
2022-11-24T03:22:31.965Z,7.73
2022-11-24T03:24:58.498Z,7.82
2022-11-24T03:27:24.803Z,7.85
2022-11-24T03:29:51.428Z,7.84
2022-11-24T03:32:17.756Z,7.84
2022-11-24T03:34:44.166Z,7.88
2022-11-24T03:37:10.555Z,7.92
2022-11-24T03:39:36.940Z,7.96
2022-11-24T03:42:03.385Z,7.99
2022-11-24T03:44:29.807Z,8.02
2022-11-24T03:46:56.197Z,8.03
2022-11-24T03:49:22.635Z,7.92
2022-11-24T03:51:49.720Z,8.04
2022-11-24T03:54:16.158Z,7.97
2022-11-24T03:56:42.742Z,8.01
2022-11-24T03:59:09.074Z,8.09
2022-11-24T04:01:35.649Z,7.95
2022-11-24T04:04:02.073Z,8.08
2022-11-24T04:06:28.588Z,8.06
2022-11-24T04:08:55.203Z,8.04
2022-11-24T04:11:41.504Z,8.09
2022-11-24T04:14:13.197Z,8.02
2022-11-24T04:16:39.851Z,8.13
2022-11-24T04:19:06.507Z,8.12
2022-11-24T04:21:33.004Z,8.13
2022-11-24T04:23:59.385Z,8.04
2022-11-24T04:26:25.813Z,7.96
2022-11-24T04:28:52.274Z,7.94
2022-11-24T04:31:18.668Z,7.97
2022-11-24T04:33:45.279Z,7.92
2022-11-24T04:36:11.664Z,7.89
2022-11-24T04:39:23.025Z,7.92
2022-11-24T04:41:24.511Z,7.97
2022-11-24T04:43:51.223Z,8.02
2022-11-24T04:46:17.830Z,8.08
2022-11-24T04:48:44.223Z,8.06
2022-11-24T04:51:13.346Z,8.06
2022-11-24T04:53:39.767Z,8.00
2022-11-24T04:56:06.688Z,8.13
2022-11-24T04:58:33.266Z,8.09
2022-11-24T05:00:59.922Z,8.20
2022-11-24T05:03:26.340Z,8.13
2022-11-24T05:05:52.778Z,8.13
2022-11-24T05:08:19.230Z,8.13
2022-11-24T05:10:46.804Z,8.06
2022-11-24T05:13:13.767Z,7.94
2022-11-24T05:15:41.745Z,7.85
2022-11-24T05:18:12.123Z,7.79
2022-11-24T05:20:38.990Z,7.80
2022-11-24T05:23:07.467Z,7.85
2022-11-24T05:25:35.068Z,7.87
2022-11-24T05:28:03.979Z,7.85
2022-11-24T05:30:30.977Z,7.83
2022-11-24T05:32:58.212Z,7.95
2022-11-24T05:35:24.948Z,7.94
2022-11-24T05:37:51.328Z,7.84
2022-11-24T05:40:17.868Z,7.99
2022-11-24T05:42:47.586Z,8.04
2022-11-24T05:45:17.687Z,7.96
2022-11-24T05:47:44.636Z,8.07
2022-11-24T05:50:13.679Z,8.13
2022-11-24T05:52:40.625Z,8.06
2022-11-24T05:55:08.755Z,8.17
2022-11-24T05:57:35.453Z,8.20
2022-11-24T06:00:03.872Z,8.23
2022-11-24T06:02:54.454Z,8.20
2022-11-24T06:05:24.595Z,8.25
2022-11-24T06:07:52.217Z,8.19
2022-11-24T06:10:21.002Z,8.18
2022-11-24T06:12:48.034Z,8.26
2022-11-24T06:15:14.514Z,8.28
2022-11-24T06:17:41.063Z,8.29
2022-11-24T06:20:07.827Z,8.28
2022-11-24T06:22:34.432Z,8.17
2022-11-24T06:25:00.865Z,8.07
2022-11-24T06:27:27.802Z,7.95
2022-11-24T06:29:54.357Z,7.90
2022-11-24T06:32:20.785Z,7.83
2022-11-24T06:34:47.245Z,7.84
2022-11-24T06:37:13.662Z,7.84
2022-11-24T06:39:40.208Z,7.87
2022-11-24T06:42:07.020Z,7.77
2022-11-24T06:44:33.785Z,7.77
2022-11-24T06:47:00.456Z,7.80
2022-11-24T06:49:27.152Z,7.75
2022-11-24T06:51:54.272Z,7.78
2022-11-24T06:54:23.368Z,7.69
2022-11-24T06:56:49.967Z,7.77
2022-11-24T06:59:20.152Z,7.69
2022-11-24T07:01:47.105Z,7.64
2022-11-24T07:04:13.984Z,7.56
2022-11-24T07:06:41.373Z,7.72
2022-11-24T07:09:09.547Z,7.63
2022-11-24T07:11:36.317Z,7.73
2022-11-24T07:14:03.179Z,7.76
2022-11-24T07:16:30.059Z,7.78
2022-11-24T07:18:57.739Z,7.92
2022-11-24T07:21:25.714Z,8.01
2022-11-24T07:23:54.148Z,8.01
2022-11-24T07:26:21.511Z,8.01
2022-11-24T07:28:47.972Z,7.92
2022-11-24T07:31:18.755Z,7.85
2022-11-24T07:33:49.848Z,8.00
2022-11-24T07:36:16.527Z,7.92
2022-11-24T07:38:43.084Z,7.94
2022-11-24T07:41:11.363Z,7.89
2022-11-24T07:43:38.664Z,7.93
2022-11-24T07:46:06.963Z,7.95
2022-11-24T07:48:34.373Z,7.89
2022-11-24T07:51:02.400Z,7.87
2022-11-24T07:53:29.116Z,7.91
2022-11-24T07:55:57.026Z,7.91
2022-11-24T07:58:27.619Z,7.85
2022-11-24T08:00:56.865Z,7.83
2022-11-24T08:03:23.922Z,7.79
2022-11-24T08:06:23.205Z,7.82
2022-11-24T08:08:45.210Z,7.73
2022-11-24T08:11:17.266Z,7.76
2022-11-24T08:13:43.992Z,7.71
2022-11-24T08:16:12.788Z,7.78
2022-11-24T08:18:39.552Z,7.73
2022-11-24T08:21:06.403Z,7.81
2022-11-24T08:23:33.143Z,7.84
2022-11-24T08:26:05.055Z,7.92
2022-11-24T08:28:32.483Z,8.01
2022-11-24T08:31:06.881Z,8.02
2022-11-24T08:33:33.593Z,7.89
2022-11-24T08:36:04.208Z,8.01
2022-11-24T08:38:30.746Z,7.95
2022-11-24T08:41:01.813Z,7.99
2022-11-24T08:43:28.311Z,7.92
2022-11-24T08:45:54.750Z,7.96
2022-11-24T08:48:21.261Z,8.06
2022-11-24T08:50:47.644Z,8.11
2022-11-24T08:53:16.121Z,8.08
2022-11-24T08:55:42.588Z,8.11
2022-11-24T08:58:08.987Z,8.18
2022-11-24T09:00:35.522Z,8.19
2022-11-24T09:03:01.904Z,8.37
2022-11-24T09:05:51.310Z,8.28
2022-11-24T09:08:14.664Z,8.31
2022-11-24T09:10:41.036Z,8.36
2022-11-24T09:13:08.506Z,8.25
2022-11-24T09:15:35.344Z,8.35
2022-11-24T09:18:01.743Z,8.40
2022-11-24T09:20:28.320Z,8.38
2022-11-24T09:22:55.946Z,8.42
2022-11-24T09:25:23.610Z,8.48
2022-11-24T09:27:51.001Z,8.53
2022-11-24T09:30:17.791Z,8.50
2022-11-24T09:32:44.402Z,8.50
2022-11-24T09:35:10.710Z,8.53
2022-11-24T09:37:37.190Z,8.55
2022-11-24T09:40:03.939Z,8.54
2022-11-24T09:43:03.551Z,8.61
2022-11-24T09:46:04.615Z,8.60
2022-11-24T09:48:34.670Z,8.59
2022-11-24T09:51:04.277Z,8.63
2022-11-24T09:53:45.915Z,8.76
2022-11-24T09:56:25.884Z,8.73
2022-11-24T09:58:59.248Z,8.81
2022-11-24T10:01:37.462Z,8.84
2022-11-24T10:04:10.707Z,8.89
2022-11-24T10:06:54.063Z,8.87
2022-11-24T10:09:51.976Z,8.94
2022-11-24T10:13:02.124Z,8.95
2022-11-24T10:15:54.112Z,9.41
2022-11-24T10:18:50.133Z,9.09
2022-11-24T10:21:42.123Z,9.09
2022-11-24T10:24:26.570Z,9.11
2022-11-24T10:27:02.168Z,9.14
2022-11-24T10:29:30.713Z,9.01
2022-11-24T10:31:57.804Z,9.11
2022-11-24T10:34:27.091Z,9.08
2022-11-24T10:37:05.854Z,9.16
2022-11-24T10:40:00.064Z,9.25
2022-11-24T10:42:28.625Z,9.29
2022-11-24T10:45:26.525Z,9.39
2022-11-24T10:47:52.944Z,9.39
2022-11-24T10:50:22.457Z,9.55
2022-11-24T10:53:03.440Z,9.57
2022-11-24T10:55:58.661Z,9.52
2022-11-24T10:58:38.273Z,9.53
2022-11-24T11:01:14.247Z,9.57
2022-11-24T11:03:59.600Z,9.58
2022-11-24T11:06:28.994Z,9.64
2022-11-24T11:09:07.952Z,9.61
2022-11-24T11:11:36.299Z,9.66
2022-11-24T11:14:05.102Z,9.70
2022-11-24T11:16:38.124Z,9.68
2022-11-24T11:19:47.873Z,9.61
2022-11-24T11:22:24.547Z,9.75
2022-11-24T11:25:04.521Z,10.10
2022-11-24T11:27:31.173Z,10.01
2022-11-24T11:35:50.215Z,9.98
2022-11-24T11:38:16.759Z,10.21
2022-11-24T11:40:43.791Z,10.00
2022-11-24T11:43:24.736Z,9.95
2022-11-24T11:46:02.122Z,9.85
2022-11-24T11:48:42.716Z,9.94
2022-11-24T11:51:25.842Z,9.88
2022-11-24T11:54:34.813Z,9.86
2022-11-24T11:57:17.674Z,9.85
2022-11-24T12:00:17.591Z,9.88
2022-11-24T12:03:08.366Z,9.83
2022-11-24T12:05:52.880Z,9.85
2022-11-24T12:09:03.299Z,9.88
2022-11-24T12:11:31.852Z,10.08
2022-11-24T12:14:41.994Z,10.40
2022-11-24T12:17:24.618Z,10.31
2022-11-24T12:20:00.540Z,10.79
2022-11-24T12:22:58.035Z,11.52
2022-11-24T12:25:38.116Z,11.66
2022-11-24T12:28:29.409Z,11.51
2022-11-24T12:31:06.825Z,11.61
2022-11-24T12:34:01.179Z,11.43
2022-11-24T12:36:46.673Z,11.30
2022-11-24T12:39:30.767Z,10.99
2022-11-24T12:42:09.049Z,11.51
2022-11-24T12:44:52.208Z,11.59
2022-11-24T12:47:24.365Z,11.77
2022-11-24T12:50:14.593Z,11.63
2022-11-24T12:52:54.138Z,11.61
2022-11-24T12:55:25.400Z,11.38
2022-11-24T12:58:11.402Z,11.48
2022-11-24T13:00:52.790Z,11.25
2022-11-24T13:03:40.851Z,11.00
2022-11-24T13:06:19.644Z,10.92
2022-11-24T13:08:46.541Z,10.70
2022-11-24T13:11:22.071Z,10.88
2022-11-24T13:14:00.601Z,11.60
2022-11-24T13:16:36.213Z,12.01
2022-11-24T13:19:17.200Z,12.04
2022-11-24T13:21:45.374Z,12.36
2022-11-24T13:24:18.560Z,12.31
2022-11-24T13:26:49.043Z,12.43
2022-11-24T13:29:25.538Z,12.66
2022-11-24T13:31:52.245Z,12.42
2022-11-24T13:34:40.239Z,12.26
2022-11-24T13:37:26.489Z,12.63
2022-11-24T13:40:23.172Z,12.88
2022-11-24T13:43:01.318Z,12.64
2022-11-24T13:45:40.544Z,12.35
2022-11-24T13:48:19.134Z,12.50
2022-11-24T13:50:53.001Z,12.63
2022-11-24T13:53:32.116Z,12.86
2022-11-24T13:55:59.679Z,12.74
2022-11-24T13:58:30.539Z,12.84
2022-11-24T14:01:08.891Z,12.51
2022-11-24T14:06:51.518Z,12.15
2022-11-24T14:09:44.599Z,12.03
2022-11-24T14:12:12.711Z,12.22
2022-11-24T14:14:40.344Z,12.02
2022-11-24T14:17:14.031Z,11.83
2022-11-24T14:19:41.617Z,11.53
2022-11-24T14:22:30.946Z,11.32
2022-11-24T14:25:01.419Z,10.88
2022-11-24T14:27:45.950Z,10.70
2022-11-24T14:30:13.502Z,10.53
2022-11-24T14:32:40.613Z,10.45
2022-11-24T14:35:25.445Z,10.37
2022-11-24T14:37:52.209Z,10.31
2022-11-24T14:40:36.966Z,10.38
2022-11-24T14:43:34.586Z,10.32
2022-11-24T14:46:04.577Z,10.21
2022-11-24T14:48:47.860Z,10.40
2022-11-24T14:51:23.036Z,10.41
2022-11-24T14:53:53.816Z,10.55
2022-11-24T14:56:24.965Z,10.57
2022-11-24T14:58:52.049Z,10.41
2022-11-24T15:01:21.211Z,10.26
2022-11-24T15:07:29.468Z,10.21
2022-11-24T15:09:58.515Z,10.21
2022-11-24T15:12:29.319Z,9.90
2022-11-24T15:15:00.955Z,9.79
2022-11-24T15:17:29.035Z,9.49
2022-11-24T15:20:00.007Z,9.42
2022-11-24T15:22:38.417Z,9.28
2022-11-24T15:25:25.883Z,9.03
2022-11-24T15:27:52.769Z,9.22
2022-11-24T15:30:19.956Z,8.87
2022-11-24T15:32:50.736Z,8.92
2022-11-24T15:35:17.270Z,8.63
2022-11-24T15:37:43.883Z,8.63
2022-11-24T15:40:14.036Z,8.42
2022-11-24T15:42:41.052Z,8.25
2022-11-24T15:45:07.996Z,8.05
2022-11-24T15:48:02.351Z,8.03
2022-11-24T15:50:28.819Z,7.88
2022-11-24T15:52:57.130Z,7.86
2022-11-24T15:55:23.600Z,7.58
2022-11-24T15:57:50.111Z,7.51
2022-11-24T16:00:21.359Z,7.78
2022-11-24T16:05:55.711Z,7.43
2022-11-24T16:08:22.251Z,7.07
2022-11-24T16:10:48.856Z,7.07
2022-11-24T16:13:15.369Z,7.05
2022-11-24T16:15:41.798Z,7.05
2022-11-24T16:18:08.447Z,7.08
2022-11-24T16:20:36.007Z,7.02
2022-11-24T16:23:04.352Z,6.90
2022-11-24T16:25:39.628Z,6.99
2022-11-24T16:28:07.692Z,6.87
2022-11-24T16:30:35.220Z,6.76
2022-11-24T16:33:06.643Z,6.69
2022-11-24T16:35:33.731Z,6.59
2022-11-24T16:38:00.140Z,6.47
2022-11-24T16:40:27.070Z,6.46
2022-11-24T16:42:56.144Z,6.59
2022-11-24T16:45:22.916Z,6.51
2022-11-24T16:47:49.757Z,6.44
2022-11-24T16:50:16.922Z,6.33
2022-11-24T16:52:43.776Z,6.25
2022-11-24T16:55:11.582Z,6.23
2022-11-24T16:57:38.280Z,6.28
2022-11-24T17:00:06.116Z,6.12
2022-11-24T17:02:33.443Z,6.10
2022-11-24T17:05:00.135Z,6.28
2022-11-24T17:07:26.777Z,6.14
2022-11-24T17:09:54.344Z,6.14
2022-11-24T17:12:20.818Z,6.13
2022-11-24T17:15:09.367Z,6.04
2022-11-24T17:17:33.731Z,6.05
2022-11-24T17:20:00.890Z,5.99
2022-11-24T17:22:27.992Z,5.93
2022-11-24T17:24:54.715Z,5.84
2022-11-24T17:27:21.280Z,5.83
2022-11-24T17:29:47.672Z,5.78
2022-11-24T17:32:14.240Z,5.76
2022-11-24T17:34:40.689Z,5.64
2022-11-24T17:37:07.461Z,5.71
2022-11-24T17:39:34.248Z,5.70
2022-11-24T17:42:00.705Z,5.60
2022-11-24T17:44:27.533Z,5.48
2022-11-24T17:46:54.223Z,5.42
2022-11-24T17:49:21.119Z,5.41
2022-11-24T17:51:51.521Z,5.33
2022-11-24T17:57:05.910Z,5.10
2022-11-24T17:59:32.606Z,5.18
2022-11-24T18:01:59.287Z,5.07
2022-11-24T18:04:25.651Z,5.09
2022-11-24T18:06:52.107Z,5.12
2022-11-24T18:09:18.510Z,5.08
2022-11-24T18:11:45.021Z,5.01
2022-11-24T18:14:11.641Z,5.04
2022-11-24T18:16:38.006Z,5.01
2022-11-24T18:19:10.457Z,5.04
2022-11-24T18:21:40.160Z,5.09
2022-11-24T18:24:09.651Z,5.03
2022-11-24T18:26:36.961Z,5.09
2022-11-24T18:29:04.327Z,5.01
2022-11-24T18:31:32.329Z,4.96
2022-11-24T18:33:59.425Z,4.98
2022-11-24T18:36:30.376Z,4.89
2022-11-24T18:39:00.899Z,4.92
2022-11-24T18:41:27.499Z,4.97
2022-11-24T18:43:53.948Z,4.90
2022-11-24T18:46:20.587Z,4.95
2022-11-24T18:48:47.185Z,4.93
2022-11-24T18:51:16.729Z,4.89
2022-11-24T18:53:45.110Z,4.84
2022-11-24T18:56:16.715Z,4.97
2022-11-24T18:58:43.910Z,4.79
2022-11-24T19:01:16.733Z,4.76
2022-11-24T19:03:48.776Z,4.86
2022-11-24T19:06:28.793Z,4.88
2022-11-24T19:08:55.996Z,4.80
2022-11-24T19:11:23.817Z,4.77
2022-11-24T19:14:15.269Z,4.68
2022-11-24T19:16:42.738Z,4.64
2022-11-24T19:19:11.576Z,4.57
2022-11-24T19:21:39.748Z,4.60
2022-11-24T19:24:09.868Z,4.59
2022-11-24T19:26:37.708Z,4.66
2022-11-24T19:29:05.947Z,4.56
2022-11-24T19:31:33.957Z,4.51
2022-11-24T19:34:03.335Z,4.42
2022-11-24T19:36:30.119Z,4.45
2022-11-24T19:38:57.552Z,4.49
2022-11-24T19:41:30.371Z,4.46
2022-11-24T19:43:58.628Z,4.46
2022-11-24T19:46:27.965Z,4.46
2022-11-24T19:48:57.022Z,4.45
2022-11-24T19:51:26.860Z,4.38
2022-11-24T19:53:54.160Z,4.50
2022-11-24T19:56:24.049Z,4.44
2022-11-24T19:58:51.611Z,4.30
2022-11-24T20:01:26.093Z,4.34
2022-11-24T20:04:00.988Z,4.27
2022-11-24T20:06:32.621Z,4.29
2022-11-24T20:09:02.873Z,4.33
2022-11-24T20:11:30.087Z,4.20
2022-11-24T20:13:57.773Z,4.23
2022-11-24T20:16:38.054Z,4.27
2022-11-24T20:19:09.727Z,4.18
2022-11-24T20:21:37.547Z,4.08
2022-11-24T20:24:11.374Z,4.08
2022-11-24T20:26:45.074Z,4.08
2022-11-24T20:29:13.317Z,4.06
2022-11-24T20:31:45.563Z,4.16
2022-11-24T20:34:13.276Z,4.06
2022-11-24T20:36:43.219Z,4.12
2022-11-24T20:39:13.938Z,3.99
2022-11-24T20:41:41.293Z,4.05
2022-11-24T20:44:13.011Z,3.98
2022-11-24T20:46:41.963Z,3.94
2022-11-24T20:49:12.086Z,3.85
2022-11-24T20:51:44.027Z,3.96
2022-11-24T20:54:13.007Z,3.82
2022-11-24T20:56:41.649Z,3.69
2022-11-24T20:59:11.838Z,3.72
2022-11-24T21:01:40.812Z,3.68
2022-11-24T21:04:13.338Z,3.66
2022-11-24T21:06:41.306Z,3.59
2022-11-24T21:09:09.069Z,3.63
2022-11-24T21:11:36.618Z,3.57
2022-11-24T21:14:04.248Z,3.62
2022-11-24T21:16:33.905Z,3.58
2022-11-24T21:19:12.576Z,3.58
2022-11-24T21:21:40.955Z,3.50
2022-11-24T21:24:21.442Z,3.52
2022-11-24T21:26:49.103Z,3.48
2022-11-24T21:29:17.759Z,3.56
2022-11-24T21:31:44.342Z,3.57
2022-11-24T21:34:13.780Z,3.44
2022-11-24T21:36:44.548Z,3.43
2022-11-24T21:39:13.500Z,3.37
2022-11-24T21:41:40.601Z,3.26
2022-11-24T21:44:07.220Z,3.29
2022-11-24T21:46:38.960Z,3.34
2022-11-24T21:49:07.639Z,3.41
2022-11-24T21:51:34.011Z,3.44
2022-11-24T21:54:00.845Z,3.46
2022-11-24T21:56:27.520Z,3.33
2022-11-24T21:58:57.149Z,3.43
2022-11-24T22:01:27.844Z,3.40
2022-11-24T22:03:54.979Z,3.39
2022-11-24T22:06:21.423Z,3.39
2022-11-24T22:08:48.902Z,3.34
2022-11-24T22:11:18.305Z,3.36
2022-11-24T22:13:45.544Z,3.34
2022-11-24T22:16:14.788Z,3.29
2022-11-24T22:18:42.519Z,3.38
2022-11-24T22:21:16.116Z,3.38
2022-11-24T22:23:43.401Z,3.33
2022-11-24T22:26:14.262Z,3.37
2022-11-24T22:28:41.082Z,3.28
2022-11-24T22:31:13.149Z,3.20
2022-11-24T22:33:40.147Z,3.18
2022-11-24T22:36:07.079Z,3.13
2022-11-24T22:38:34.243Z,3.13
2022-11-24T22:41:06.360Z,3.16
2022-11-24T22:43:35.202Z,3.22
2022-11-24T22:46:21.769Z,3.21
2022-11-24T22:48:49.991Z,3.18
2022-11-24T22:51:22.114Z,3.21
2022-11-24T22:53:50.499Z,3.12
2022-11-24T22:56:18.006Z,3.06
2022-11-24T22:58:44.481Z,3.08
2022-11-24T23:01:22.191Z,3.16
2022-11-24T23:03:49.598Z,3.23
2022-11-24T23:06:17.958Z,3.17
2022-11-24T23:08:44.693Z,3.17
2022-11-24T23:11:15.232Z,3.21
2022-11-24T23:13:41.981Z,3.20
2022-11-24T23:16:14.644Z,3.21
2022-11-24T23:18:42.121Z,3.12
2022-11-24T23:21:12.341Z,3.23
2022-11-24T23:23:39.319Z,3.19
2022-11-24T23:26:08.593Z,3.11
2022-11-24T23:28:35.351Z,3.14
2022-11-24T23:31:09.591Z,3.08
2022-11-24T23:33:36.690Z,3.07
2022-11-24T23:36:09.230Z,3.04
2022-11-24T23:38:36.198Z,3.07
2022-11-24T23:41:04.595Z,2.98
2022-11-24T23:43:32.525Z,2.98
2022-11-24T23:46:07.712Z,3.03
2022-11-24T23:48:34.375Z,3.04
2022-11-24T23:51:04.527Z,3.02
2022-11-24T23:53:35.474Z,2.92
2022-11-24T23:56:02.428Z,3.08
2022-11-24T23:58:28.874Z,3.15
